Time;durP1;ratioP1;P1;durP2;ratioP2;P2;SDS_P1;SDS_P2;PMS_P1;PMS_P2;Temp;Humidity;BMP_temperature;BMP_pressure;BME280_temperature;BME280_humidity;BME280_pressure;Samples;Min_cycle;Max_cycle;Signal;HPM_P1;HPM_P2
2022/12/18 00:01:25;;;;;;;61.92;28.85;;;-1.30;99.90;;;;;;4992723;28;20042;-81
2022/12/18 00:03:53;;;;;;;64.40;29.92;;;-1.30;99.90;;;;;;4984097;28;20122;-81
2022/12/18 00:06:19;;;;;;;61.40;30.10;;;-1.40;99.90;;;;;;4985159;28;20403;-81
2022/12/18 00:08:45;;;;;;;66.03;30.77;;;-1.40;99.90;;;;;;4979680;28;20049;-81
2022/12/18 00:11:14;;;;;;;67.15;30.10;;;-1.40;99.90;;;;;;4994729;28;20051;-81
2022/12/18 00:13:40;;;;;;;60.65;29.17;;;-1.40;99.90;;;;;;4990723;28;20121;-81
2022/12/18 00:16:10;;;;;;;65.32;29.85;;;-1.40;99.90;;;;;;4976553;28;20130;-81
2022/12/18 00:18:35;;;;;;;67.60;29.40;;;-1.50;99.90;;;;;;4976919;28;20138;-81
2022/12/18 00:21:04;;;;;;;69.00;31.10;;;-1.50;99.90;;;;;;4977070;28;20129;-81
2022/12/18 00:23:33;;;;;;;64.00;29.40;;;-1.50;99.90;;;;;;4979903;28;20042;-81
2022/12/18 00:26:01;;;;;;;71.25;30.65;;;-1.50;99.90;;;;;;4994363;28;20056;-81
2022/12/18 00:28:27;;;;;;;58.75;29.10;;;-1.40;99.90;;;;;;4991552;28;20457;-81
2022/12/18 00:31:07;;;;;;;72.05;31.73;;;-1.40;99.90;;;;;;4989691;28;20050;-81
2022/12/18 00:33:33;;;;;;;64.30;29.33;;;-1.40;99.90;;;;;;4979543;28;20500;-81
2022/12/18 00:36:07;;;;;;;63.13;29.00;;;-1.30;99.90;;;;;;4981157;28;20499;-81
2022/12/18 00:38:34;;;;;;;62.65;29.00;;;-1.30;99.90;;;;;;4977958;28;20054;-81
2022/12/18 00:40:59;;;;;;;66.38;29.65;;;-1.30;99.90;;;;;;4991940;28;20053;-81
2022/12/18 00:43:25;;;;;;;62.97;28.85;;;-1.30;99.90;;;;;;4974830;28;20042;-81
2022/12/18 00:45:51;;;;;;;60.45;28.73;;;-1.20;99.90;;;;;;4973935;28;20049;-81
2022/12/18 00:48:16;;;;;;;64.55;29.35;;;-1.20;99.90;;;;;;4981429;28;20050;-81
2022/12/18 00:50:42;;;;;;;69.20;29.48;;;-1.20;99.90;;;;;;4975533;28;20042;-81
2022/12/18 00:53:08;;;;;;;60.53;29.42;;;-1.20;99.90;;;;;;4974301;28;20471;-81
2022/12/18 00:55:34;;;;;;;63.13;28.98;;;-1.20;99.90;;;;;;4991099;28;20054;-81
2022/12/18 00:57:59;;;;;;;61.60;28.98;;;-1.20;99.90;;;;;;4975549;28;20035;-80
2022/12/18 01:00:25;;;;;;;63.47;28.52;;;-1.20;99.90;;;;;;4976738;28;20102;-81
2022/12/18 01:02:51;;;;;;;58.50;29.00;;;-1.20;99.90;;;;;;5012854;28;20046;-81
2022/12/18 01:05:16;;;;;;;61.03;29.23;;;-1.20;99.90;;;;;;4996908;28;20133;-81
2022/12/18 01:07:42;;;;;;;60.72;28.85;;;-1.10;99.90;;;;;;4973482;28;20053;-81
2022/12/18 01:10:09;;;;;;;60.67;29.67;;;-1.20;99.90;;;;;;4974475;28;20039;-80
2022/12/18 01:12:35;;;;;;;67.70;30.13;;;-1.20;99.90;;;;;;4978828;28;20077;-81
2022/12/18 01:15:01;;;;;;;60.25;29.80;;;-1.20;99.90;;;;;;4981588;28;20141;-81
2022/12/18 01:17:26;;;;;;;55.90;27.70;;;-1.20;99.90;;;;;;4978424;28;20250;-81
2022/12/18 01:19:52;;;;;;;57.47;28.17;;;-1.20;99.90;;;;;;4980882;28;20043;-80
2022/12/18 01:22:17;;;;;;;57.03;28.67;;;-1.20;99.90;;;;;;4973884;28;20128;-81
2022/12/18 01:24:43;;;;;;;64.85;29.58;;;-1.20;99.90;;;;;;4980657;28;20090;-81
2022/12/18 01:27:09;;;;;;;60.53;30.08;;;-1.20;99.90;;;;;;4985376;28;20046;-81
2022/12/18 01:29:34;;;;;;;59.72;27.80;;;-1.20;99.90;;;;;;4990289;28;20045;-80
2022/12/18 01:32:00;;;;;;;63.28;29.88;;;-1.20;99.90;;;;;;5002982;28;20066;-80
2022/12/18 01:34:25;;;;;;;60.97;28.60;;;-1.20;99.90;;;;;;4973100;28;20046;-81
2022/12/18 01:36:52;;;;;;;57.75;27.70;;;-1.20;99.90;;;;;;4979673;28;20137;-81
2022/12/18 01:39:18;;;;;;;64.32;29.88;;;-1.20;99.90;;;;;;4982499;28;20468;-81
2022/12/18 01:42:03;;;;;;;59.80;28.88;;;-1.20;99.90;;;;;;4973520;28;20065;-81
2022/12/18 01:44:55;;;;;;;58.35;26.88;;;-1.30;99.90;;;;;;4978981;28;20043;-81
2022/12/18 01:47:23;;;;;;;61.55;29.02;;;-1.30;99.90;;;;;;4974380;28;20133;-81
2022/12/18 01:49:49;;;;;;;61.80;28.13;;;-1.30;99.90;;;;;;4977814;28;20034;-80
2022/12/18 01:52:16;;;;;;;64.18;30.33;;;-1.30;99.90;;;;;;4992464;28;20044;-81
2022/12/18 01:54:42;;;;;;;65.35;29.85;;;-1.40;99.90;;;;;;4993327;28;20038;-81
2022/12/18 01:57:07;;;;;;;60.67;29.85;;;-1.40;99.90;;;;;;4979299;28;20104;-80
2022/12/18 01:59:35;;;;;;;65.45;30.60;;;-1.40;99.90;;;;;;4988335;28;20057;-80
2022/12/18 02:02:02;;;;;;;63.78;30.58;;;-1.40;99.90;;;;;;4981400;28;20494;-80
2022/12/18 02:04:28;;;;;;;62.45;29.48;;;-1.40;99.90;;;;;;4991449;28;20453;-80
2022/12/18 02:07:30;;;;;;;62.35;28.63;;;-1.40;99.90;;;;;;4991763;28;20038;-81
2022/12/18 02:10:14;;;;;;;62.10;29.50;;;-1.40;99.90;;;;;;4973397;28;20055;-80
2022/12/18 02:12:52;;;;;;;66.00;30.35;;;-1.40;99.90;;;;;;4982279;28;20494;-81
2022/12/18 02:15:42;;;;;;;58.95;28.23;;;-1.40;99.90;;;;;;4988435;28;20077;-80
2022/12/18 02:18:19;;;;;;;64.57;29.73;;;-1.50;99.90;;;;;;4977821;28;20047;-80
2022/12/18 02:20:55;;;;;;;65.65;30.50;;;-1.50;99.90;;;;;;4973988;28;20047;-81
2022/12/18 02:23:46;;;;;;;67.90;29.05;;;-1.50;99.90;;;;;;4983894;28;20046;-81
2022/12/18 02:26:12;;;;;;;65.68;31.17;;;-1.50;99.90;;;;;;4992167;28;20140;-81
2022/12/18 02:28:55;;;;;;;68.40;31.52;;;-1.60;99.90;;;;;;4982672;28;20133;-80
2022/12/18 02:31:25;;;;;;;67.68;30.08;;;-1.60;99.90;;;;;;4971416;28;20439;-81
2022/12/18 02:33:56;;;;;;;64.18;29.15;;;-1.60;99.90;;;;;;4973702;28;20070;-80
2022/12/18 02:36:23;;;;;;;65.75;29.70;;;-1.60;99.90;;;;;;4972733;28;20051;-81
2022/12/18 02:38:50;;;;;;;63.45;29.77;;;-1.60;99.90;;;;;;4972498;28;20074;-80
2022/12/18 02:41:17;;;;;;;63.42;29.70;;;-1.60;99.90;;;;;;4989356;28;20088;-81
2022/12/18 02:43:54;;;;;;;67.50;30.77;;;-1.60;99.90;;;;;;4998425;28;20047;-80
2022/12/18 02:46:25;;;;;;;62.20;28.80;;;-1.70;99.90;;;;;;4971773;28;20131;-80
2022/12/18 02:48:57;;;;;;;64.40;30.50;;;-1.70;99.90;;;;;;4972074;28;20081;-80
2022/12/18 02:52:04;;;;;;;68.78;32.15;;;-1.70;99.90;;;;;;4973223;28;20418;-80
2022/12/18 02:54:52;;;;;;;62.72;29.60;;;-1.70;99.90;;;;;;4973618;28;20419;-80
2022/12/18 02:57:27;;;;;;;64.90;30.05;;;-1.70;99.90;;;;;;4975555;28;20133;-80
2022/12/18 03:00:00;;;;;;;66.55;29.50;;;-1.80;99.90;;;;;;4995970;28;20422;-80
2022/12/18 03:02:43;;;;;;;67.07;30.33;;;-1.80;99.90;;;;;;4984496;28;20043;-81
2022/12/18 03:05:23;;;;;;;64.15;29.75;;;-1.80;99.90;;;;;;4975906;28;20038;-81
2022/12/18 03:07:56;;;;;;;63.88;29.30;;;-1.80;99.90;;;;;;4976375;28;20039;-81
2022/12/18 03:10:30;;;;;;;65.88;29.85;;;-1.80;99.90;;;;;;4976379;28;20047;-80
2022/12/18 03:13:04;;;;;;;63.78;28.88;;;-1.80;99.90;;;;;;4988467;28;20050;-80
2022/12/18 03:15:35;;;;;;;64.60;29.80;;;-1.90;99.90;;;;;;4975798;28;20042;-81
2022/12/18 03:18:13;;;;;;;63.83;29.88;;;-1.90;99.90;;;;;;4976123;28;20050;-80
2022/12/18 03:20:40;;;;;;;59.08;28.38;;;-1.90;99.90;;;;;;4991000;28;20501;-80
2022/12/18 03:23:10;;;;;;;69.03;31.48;;;-1.90;99.90;;;;;;4976874;28;20047;-80
2022/12/18 03:25:39;;;;;;;64.80;29.77;;;-1.90;99.90;;;;;;4975899;28;20051;-80
2022/12/18 03:28:08;;;;;;;63.28;29.17;;;-2.00;99.90;;;;;;4979911;28;20089;-79
2022/12/18 03:30:38;;;;;;;64.15;29.08;;;-2.00;99.90;;;;;;4993934;28;20073;-80
2022/12/18 03:33:28;;;;;;;59.42;28.95;;;-2.00;99.90;;;;;;4997070;28;20042;-80
2022/12/18 03:35:54;;;;;;;65.30;29.63;;;-2.00;99.90;;;;;;4975149;28;20047;-80
2022/12/18 03:38:19;;;;;;;60.55;28.30;;;-2.00;99.90;;;;;;4988459;28;20050;-80
2022/12/18 03:40:54;;;;;;;66.78;29.33;;;-2.10;99.90;;;;;;4991419;28;20082;-80
2022/12/18 03:43:48;;;;;;;63.25;28.50;;;-2.10;99.90;;;;;;4976127;28;20038;-80
2022/12/18 03:46:24;;;;;;;;;;;-2.10;99.90;;;;;;4991791;28;20129;-80
2022/12/18 03:48:57;;;;;;;65.20;27.60;;;-2.10;99.90;;;;;;4990981;28;20052;-80
2022/12/18 03:51:28;;;;;;;;;;;-2.10;99.90;;;;;;4976654;28;20047;-80
2022/12/18 03:54:02;;;;;;;58.65;27.15;;;-2.10;99.90;;;;;;4977410;28;19937;-80
2022/12/18 03:56:36;;;;;;;61.47;27.35;;;-2.10;99.90;;;;;;4975246;28;20145;-80
2022/12/18 03:59:04;;;;;;;59.83;27.90;;;-2.10;99.90;;;;;;4988266;28;20538;-80
2022/12/18 04:01:38;;;;;;;61.15;28.00;;;-2.10;99.90;;;;;;4976018;28;20035;-80
2022/12/18 04:04:05;;;;;;;60.28;27.42;;;-2.20;99.90;;;;;;4978432;28;20050;-80
2022/12/18 04:06:35;;;;;;;64.50;28.65;;;-2.20;99.90;;;;;;4981902;28;20078;-80
2022/12/18 04:09:01;;;;;;;64.53;28.67;;;-2.20;99.90;;;;;;4985448;28;20042;-80
2022/12/18 04:11:26;;;;;;;66.97;27.85;;;-2.20;99.90;;;;;;4976094;28;20101;-80
2022/12/18 04:13:57;;;;;;;61.53;28.42;;;-2.30;99.90;;;;;;4976675;28;20574;-80
2022/12/18 04:16:26;;;;;;;65.13;28.08;;;-2.30;99.90;;;;;;4993037;28;20050;-80
2022/12/18 04:18:52;;;;;;;69.65;28.83;;;-2.30;99.90;;;;;;4990160;28;20046;-80
2022/12/18 04:21:19;;;;;;;65.93;28.20;;;-2.40;99.90;;;;;;4984647;28;20043;-80
2022/12/18 04:23:44;;;;;;;67.43;29.35;;;-2.40;99.90;;;;;;4975012;28;20046;-80
2022/12/18 04:26:10;;;;;;;66.38;28.48;;;-2.50;99.90;;;;;;4975286;28;20042;-80
2022/12/18 04:28:36;;;;;;;66.05;28.85;;;-2.50;99.90;;;;;;4975635;28;20041;-80
2022/12/18 04:31:02;;;;;;;70.25;29.38;;;-2.50;99.90;;;;;;4985592;28;20046;-80
2022/12/18 04:33:28;;;;;;;63.78;28.23;;;-2.50;99.90;;;;;;4985254;28;20068;-80
2022/12/18 04:35:53;;;;;;;67.65;29.20;;;-2.50;99.90;;;;;;4984299;28;20042;-80
2022/12/18 04:38:19;;;;;;;64.75;28.30;;;-2.50;99.90;;;;;;4978368;28;20043;-80
2022/12/18 04:40:44;;;;;;;65.55;28.92;;;-2.50;99.90;;;;;;4982505;28;20047;-80
2022/12/18 04:43:10;;;;;;;68.72;29.08;;;-2.50;99.90;;;;;;4974698;28;20035;-80
2022/12/18 04:45:36;;;;;;;65.97;29.10;;;-2.50;99.90;;;;;;4974573;28;20085;-80
2022/12/18 04:48:02;;;;;;;66.90;27.77;;;-2.50;99.90;;;;;;4975743;28;20042;-81
2022/12/18 04:50:28;;;;;;;62.20;26.67;;;-2.40;99.90;;;;;;4974158;28;20049;-80
2022/12/18 04:52:53;;;;;;;62.88;27.45;;;-2.50;99.90;;;;;;4974807;28;20399;-80
2022/12/18 04:55:19;;;;;;;58.10;26.25;;;-2.50;99.90;;;;;;4981995;28;20038;-80
2022/12/18 04:57:45;;;;;;;64.35;27.30;;;-2.50;99.90;;;;;;4981061;28;20054;-80
2022/12/18 05:00:11;;;;;;;68.32;28.23;;;-2.60;99.90;;;;;;4973347;28;20038;-80
2022/12/18 05:02:36;;;;;;;66.53;27.45;;;-2.60;99.90;;;;;;4975092;28;20117;-80
2022/12/18 05:05:02;;;;;;;64.18;26.77;;;-2.70;99.90;;;;;;5000737;28;20167;-79
2022/12/18 05:07:28;;;;;;;58.45;26.08;;;-2.70;99.90;;;;;;4993927;28;20042;-80
2022/12/18 05:09:54;;;;;;;62.75;27.02;;;-2.80;99.90;;;;;;4994796;28;20132;-80
2022/12/18 05:12:19;;;;;;;59.22;25.75;;;-2.80;99.90;;;;;;4993303;28;20042;-80
2022/12/18 05:14:45;;;;;;;60.78;26.25;;;-2.80;99.90;;;;;;4994314;28;20498;-80
2022/12/18 05:17:10;;;;;;;60.25;25.88;;;-2.90;99.90;;;;;;4988085;28;20046;-80
2022/12/18 05:19:36;;;;;;;59.78;26.45;;;-2.90;99.90;;;;;;4985207;28;20416;-80
2022/12/18 05:22:01;;;;;;;63.65;28.85;;;-2.90;99.90;;;;;;4986526;28;20237;-80
2022/12/18 05:24:27;;;;;;;66.00;27.83;;;-2.90;99.90;;;;;;4974523;28;20031;-80
2022/12/18 05:26:53;;;;;;;63.85;26.35;;;-2.90;99.90;;;;;;4973959;28;20039;-80
2022/12/18 05:29:18;;;;;;;63.03;27.50;;;-2.90;99.90;;;;;;4973181;28;20502;-80
2022/12/18 05:31:44;;;;;;;55.53;25.20;;;-2.90;99.90;;;;;;4975773;28;20046;-79
2022/12/18 05:34:09;;;;;;;59.45;26.25;;;-3.00;99.90;;;;;;4993239;28;20045;-80
2022/12/18 05:36:35;;;;;;;62.05;24.85;;;-3.00;99.90;;;;;;4993970;28;20074;-80
2022/12/18 05:39:01;;;;;;;55.33;23.67;;;-3.00;99.90;;;;;;4991016;28;20035;-80
2022/12/18 05:41:27;;;;;;;53.55;24.92;;;-3.00;99.90;;;;;;4981558;28;20069;-80
2022/12/18 05:43:52;;;;;;;52.78;24.02;;;-3.00;99.90;;;;;;4973169;28;20042;-80
2022/12/18 05:46:18;;;;;;;53.85;23.92;;;-3.10;99.90;;;;;;4982254;28;20129;-80
2022/12/18 05:48:44;;;;;;;48.20;23.70;;;-3.10;99.90;;;;;;4972447;28;20039;-80
2022/12/18 05:51:14;;;;;;;55.88;24.02;;;-3.20;99.90;;;;;;4972915;28;20129;-80
2022/12/18 05:53:40;;;;;;;53.75;23.70;;;-3.10;99.90;;;;;;4983965;28;20053;-79
2022/12/18 05:56:12;;;;;;;51.80;23.58;;;-3.20;99.90;;;;;;4973581;28;20047;-80
2022/12/18 05:58:38;;;;;;;50.75;23.73;;;-3.20;99.90;;;;;;4973183;28;20054;-80
2022/12/18 06:01:10;;;;;;;53.33;24.27;;;-3.20;99.90;;;;;;4972581;28;20047;-80
2022/12/18 06:03:36;;;;;;;51.28;22.65;;;-3.20;99.90;;;;;;4972939;28;20047;-80
2022/12/18 06:06:02;;;;;;;49.38;23.17;;;-3.30;99.90;;;;;;4984384;28;20062;-80
2022/12/18 06:08:28;;;;;;;57.17;22.85;;;-3.30;99.90;;;;;;4983205;28;20070;-80
2022/12/18 06:10:54;;;;;;;51.67;23.58;;;-3.30;99.90;;;;;;4984380;28;20051;-80
2022/12/18 06:13:20;;;;;;;52.33;22.60;;;-3.30;99.90;;;;;;4981542;28;20034;-80
2022/12/18 06:15:46;;;;;;;47.17;21.55;;;-3.30;99.90;;;;;;4991825;28;20137;-80
2022/12/18 06:18:11;;;;;;;46.42;21.15;;;-3.30;99.90;;;;;;4985663;28;20130;-79
2022/12/18 06:20:39;;;;;;;45.50;21.80;;;-3.40;99.90;;;;;;4974716;28;20051;-79
2022/12/18 06:23:06;;;;;;;48.17;22.13;;;-3.40;99.90;;;;;;4979426;28;20046;-79
2022/12/18 06:25:32;;;;;;;45.80;22.40;;;-3.40;99.90;;;;;;4979603;28;20469;-79
2022/12/18 06:27:58;;;;;;;48.03;22.92;;;-3.40;99.90;;;;;;4989184;28;20038;-80
2022/12/18 06:30:24;;;;;;;45.55;21.60;;;-3.40;99.90;;;;;;4991210;28;20092;-80
2022/12/18 06:32:49;;;;;;;47.38;21.85;;;-3.40;99.90;;;;;;4992873;28;20090;-80
2022/12/18 06:35:15;;;;;;;46.97;21.42;;;-3.50;99.90;;;;;;4986345;28;20046;-80
2022/12/18 06:37:41;;;;;;;44.72;21.88;;;-3.40;99.90;;;;;;4973859;28;20055;-79
2022/12/18 06:40:07;;;;;;;43.40;20.90;;;-3.40;99.90;;;;;;4974847;28;20051;-79
2022/12/18 06:42:33;;;;;;;48.53;21.92;;;-3.50;99.90;;;;;;4991709;28;20050;-79
2022/12/18 06:44:58;;;;;;;45.28;21.67;;;-3.40;99.90;;;;;;4984879;28;20035;-80
2022/12/18 06:47:24;;;;;;;41.80;21.02;;;-3.50;99.90;;;;;;4988536;28;20141;-81
2022/12/18 06:49:49;;;;;;;44.83;20.75;;;-3.50;99.90;;;;;;4977391;28;20482;-81
2022/12/18 06:52:15;;;;;;;43.45;20.40;;;-3.50;99.90;;;;;;4973223;28;20439;-81
2022/12/18 06:54:40;;;;;;;40.17;19.98;;;-3.50;99.90;;;;;;4973105;28;20035;-80
2022/12/18 06:57:06;;;;;;;39.70;20.17;;;-3.50;99.90;;;;;;4975009;28;20101;-81
2022/12/18 06:59:32;;;;;;;42.67;20.35;;;-3.50;99.90;;;;;;4984956;28;20064;-80
2022/12/18 07:01:57;;;;;;;41.58;19.40;;;-3.50;99.90;;;;;;4992315;28;20489;-80
2022/12/18 07:04:30;;;;;;;41.08;19.15;;;-3.50;99.90;;;;;;4986528;28;20105;-81
2022/12/18 07:06:56;;;;;;;40.15;19.13;;;-3.60;99.90;;;;;;4976077;28;20389;-80
2022/12/18 07:09:21;;;;;;;38.75;17.98;;;-3.60;99.90;;;;;;4979387;28;20055;-80
2022/12/18 07:11:47;;;;;;;41.13;19.17;;;-3.60;99.90;;;;;;4976413;28;20046;-81
2022/12/18 07:14:12;;;;;;;38.55;19.52;;;-3.70;99.90;;;;;;4990421;28;20056;-81
2022/12/18 07:16:38;;;;;;;37.60;18.50;;;-3.60;99.90;;;;;;4981193;28;20054;-80
2022/12/18 07:19:04;;;;;;;36.47;18.98;;;-3.70;99.90;;;;;;4988805;28;20081;-80
2022/12/18 07:21:29;;;;;;;34.90;18.05;;;-3.70;99.90;;;;;;4983886;28;20054;-81
2022/12/18 07:23:55;;;;;;;37.42;19.20;;;-3.70;99.90;;;;;;4978455;28;20030;-81
2022/12/18 07:26:22;;;;;;;40.33;20.00;;;-3.70;99.90;;;;;;4995499;28;20062;-80
2022/12/18 07:28:48;;;;;;;35.60;18.35;;;-3.80;99.90;;;;;;4995383;28;20389;-81
2022/12/18 07:31:19;;;;;;;38.78;17.80;;;-3.80;99.90;;;;;;4976498;28;20546;-80
2022/12/18 07:33:46;;;;;;;32.53;17.13;;;-3.80;99.90;;;;;;4992393;28;20121;-89
2022/12/18 07:36:12;;;;;;;33.47;17.27;;;-3.80;99.90;;;;;;4991769;28;20046;-89
2022/12/18 07:38:38;;;;;;;36.40;17.50;;;-3.90;99.90;;;;;;4992046;28;20048;-89
2022/12/18 07:41:06;;;;;;;31.45;17.52;;;-3.90;99.90;;;;;;4988318;28;20117;-89
2022/12/18 07:43:32;;;;;;;35.38;18.02;;;-3.90;99.90;;;;;;4975979;28;20126;-81
2022/12/18 07:45:58;;;;;;;34.67;17.65;;;-3.90;99.90;;;;;;4979679;28;20045;-80
2022/12/18 07:48:24;;;;;;;36.92;18.40;;;-3.90;99.90;;;;;;4983068;28;20078;-81
2022/12/18 07:50:50;;;;;;;35.10;17.58;;;-4.00;99.90;;;;;;4976234;28;20499;-80
2022/12/18 07:53:15;;;;;;;33.55;16.10;;;-4.00;99.90;;;;;;4976779;28;20047;-81
2022/12/18 07:55:41;;;;;;;36.15;18.25;;;-4.00;99.90;;;;;;4976224;28;20047;-81
2022/12/18 07:58:07;;;;;;;33.55;16.88;;;-4.00;99.90;;;;;;4986553;28;20042;-81
2022/12/18 08:00:33;;;;;;;34.95;16.80;;;-4.00;99.90;;;;;;4994837;28;20100;-80
2022/12/18 08:02:59;;;;;;;35.30;18.08;;;-4.00;99.90;;;;;;4990115;28;20094;-80
2022/12/18 08:05:26;;;;;;;34.42;17.40;;;-4.00;99.90;;;;;;4996210;28;20120;-80
2022/12/18 08:07:51;;;;;;;36.83;18.00;;;-4.00;99.90;;;;;;4993908;28;20046;-80
2022/12/18 08:10:18;;;;;;;31.85;17.02;;;-4.00;99.90;;;;;;4989503;28;20047;-80
2022/12/18 08:12:43;;;;;;;36.03;17.48;;;-4.10;99.90;;;;;;4991521;28;20035;-80
2022/12/18 08:15:09;;;;;;;35.47;17.42;;;-4.10;99.90;;;;;;4976024;28;20487;-80
2022/12/18 08:17:35;;;;;;;32.42;16.55;;;-4.10;99.90;;;;;;4975068;28;20491;-80
2022/12/18 08:20:00;;;;;;;36.35;17.27;;;-4.10;99.90;;;;;;4975090;28;20046;-80
2022/12/18 08:22:26;;;;;;;34.72;16.67;;;-4.10;99.90;;;;;;4977661;28;20058;-79
2022/12/18 08:24:52;;;;;;;34.08;16.95;;;-4.00;99.90;;;;;;4987515;28;20514;-80
2022/12/18 08:27:17;;;;;;;35.70;17.13;;;-4.10;99.90;;;;;;4983866;28;20038;-80
2022/12/18 08:29:43;;;;;;;34.42;17.10;;;-4.10;99.90;;;;;;4981710;28;20248;-80
2022/12/18 08:32:09;;;;;;;35.88;16.95;;;-4.10;99.90;;;;;;4977599;28;20070;-80
2022/12/18 08:34:34;;;;;;;28.73;16.67;;;-4.10;99.90;;;;;;4981746;28;20050;-88
2022/12/18 08:37:00;;;;;;;36.53;18.73;;;-4.00;99.90;;;;;;4982335;28;20443;-87
2022/12/18 08:39:26;;;;;;;34.85;18.33;;;-4.10;99.90;;;;;;4994654;28;20046;-81
2022/12/18 08:44:38;;;;;;;30.67;15.77;;;-4.10;99.90;;;;;;4993733;28;20521;-80
2022/12/18 08:47:05;;;;;;;33.03;17.73;;;-4.10;99.90;;;;;;4989121;28;20398;-80
2022/12/18 08:49:31;;;;;;;34.40;16.98;;;-4.10;99.90;;;;;;4985365;28;20039;-82
2022/12/18 08:51:57;;;;;;;32.03;16.90;;;-4.10;99.90;;;;;;4984191;28;20506;-82
2022/12/18 08:54:23;;;;;;;31.90;16.85;;;-4.10;99.90;;;;;;4989158;28;20376;-80
2022/12/18 08:56:49;;;;;;;28.35;15.55;;;-4.10;99.90;;;;;;4982625;28;20402;-82
2022/12/18 08:59:16;;;;;;;28.40;15.43;;;-4.10;99.90;;;;;;4973080;28;20051;-81
2022/12/18 09:01:42;;;;;;;29.73;16.25;;;-4.00;99.90;;;;;;4974871;28;20051;-81
2022/12/18 09:04:11;;;;;;;33.58;16.42;;;-4.10;99.90;;;;;;4975231;28;20042;-81
2022/12/18 09:06:37;;;;;;;30.52;15.57;;;-4.00;99.90;;;;;;4974862;28;20051;-81
2022/12/18 09:09:04;;;;;;;31.02;16.77;;;-4.10;99.90;;;;;;4974321;28;20074;-81
2022/12/18 09:11:31;;;;;;;29.35;15.07;;;-4.00;99.90;;;;;;4973302;28;20039;-81
2022/12/18 09:13:58;;;;;;;28.92;16.30;;;-4.00;99.90;;;;;;4974097;28;20050;-81
2022/12/18 09:16:25;;;;;;;27.58;15.18;;;-4.00;99.90;;;;;;4975230;28;20050;-82
2022/12/18 09:18:51;;;;;;;22.10;13.07;;;-4.00;99.90;;;;;;4973624;28;20093;-81
2022/12/18 09:21:19;;;;;;;27.90;14.60;;;-4.00;99.90;;;;;;4973598;28;20047;-81
2022/12/18 09:23:50;;;;;;;29.20;15.50;;;-4.00;99.90;;;;;;4975359;28;20050;-82
2022/12/18 09:26:16;;;;;;;24.83;13.57;;;-4.00;99.90;;;;;;4972857;28;20093;-81
2022/12/18 09:28:42;;;;;;;26.25;13.85;;;-4.00;99.90;;;;;;4974996;28;20047;-81
2022/12/18 09:31:08;;;;;;;25.48;14.10;;;-3.90;99.90;;;;;;4974898;28;20051;-81
2022/12/18 09:33:35;;;;;;;25.10;13.18;;;-3.90;99.90;;;;;;4974438;28;20387;-81
2022/12/18 09:36:06;;;;;;;26.95;14.10;;;-3.90;99.90;;;;;;4974863;28;20406;-81
2022/12/18 09:38:32;;;;;;;25.80;13.90;;;-3.90;99.90;;;;;;4975301;28;20066;-82
2022/12/18 09:41:33;;;;;;;26.05;13.63;;;-3.80;99.90;;;;;;4974416;28;20047;-81
2022/12/18 09:44:18;;;;;;;21.70;12.93;;;-3.80;99.90;;;;;;4974783;28;20105;-81
2022/12/18 09:46:54;;;;;;;24.02;13.10;;;-3.80;99.90;;;;;;4974740;28;20553;-81
2022/12/18 09:49:25;;;;;;;24.35;13.10;;;-3.70;99.90;;;;;;4974749;28;20372;-81
2022/12/18 09:52:01;;;;;;;24.80;12.95;;;-3.70;99.90;;;;;;4973567;28;20051;-81
2022/12/18 09:54:38;;;;;;;21.80;12.50;;;-3.60;99.90;;;;;;4972560;28;20475;-81
2022/12/18 09:57:04;;;;;;;21.27;12.20;;;-3.60;99.90;;;;;;4974673;28;20050;-81
2022/12/18 09:59:39;;;;;;;20.08;10.98;;;-3.60;99.90;;;;;;4973007;28;20442;-81
2022/12/18 10:02:23;;;;;;;20.55;11.27;;;-3.50;99.90;;;;;;4972472;28;20141;-81
2022/12/18 10:05:16;;;;;;;21.42;12.00;;;-3.40;99.90;;;;;;4974030;28;20039;-81
2022/12/18 10:07:42;;;;;;;22.35;12.90;;;-3.40;99.90;;;;;;4972942;28;20057;-81
2022/12/18 10:10:19;;;;;;;22.17;11.93;;;-3.40;99.90;;;;;;4974289;28;20050;-81
2022/12/18 10:13:09;;;;;;;27.67;13.00;;;-3.40;99.90;;;;;;4973203;28;20532;-81
2022/12/18 10:15:58;;;;;;;40.50;15.85;;;-3.30;99.90;;;;;;4973897;28;20047;-81
2022/12/18 10:18:26;;;;;;;23.92;11.68;;;-3.20;99.90;;;;;;4974059;28;20511;-81
2022/12/18 10:20:57;;;;;;;22.48;11.75;;;-3.20;99.90;;;;;;4974331;28;20142;-81
2022/12/18 10:23:43;;;;;;;21.83;11.10;;;-3.20;99.90;;;;;;4972337;28;20391;-81
2022/12/18 10:26:11;;;;;;;21.98;11.20;;;-3.10;99.90;;;;;;4972797;28;20102;-81
2022/12/18 10:28:39;;;;;;;19.02;11.05;;;-3.10;99.90;;;;;;4974405;28;20042;-81
2022/12/18 10:31:16;;;;;;;20.60;11.68;;;-3.10;99.90;;;;;;4972219;28;20089;-81
2022/12/18 10:33:42;;;;;;;24.95;11.50;;;-3.00;99.90;;;;;;4974289;28;20043;-81
2022/12/18 10:36:08;;;;;;;21.92;10.70;;;-3.00;99.90;;;;;;4971803;28;20070;-81
2022/12/18 10:38:34;;;;;;;20.08;10.93;;;-3.00;99.90;;;;;;4972935;28;20069;-81
2022/12/18 10:41:03;;;;;;;18.55;10.00;;;-2.90;99.90;;;;;;4973005;28;20042;-81
2022/12/18 10:43:36;;;;;;;18.30;9.45;;;-2.90;99.90;;;;;;4972064;28;20490;-81
2022/12/18 10:46:08;;;;;;;17.95;9.18;;;-2.90;99.90;;;;;;4973162;28;20046;-81
2022/12/18 10:48:52;;;;;;;16.45;8.70;;;-2.80;99.90;;;;;;4972846;28;20133;-81
2022/12/18 10:51:28;;;;;;;17.60;10.15;;;-2.80;99.90;;;;;;4973551;28;20043;-81
2022/12/18 10:53:58;;;;;;;16.33;9.63;;;-2.80;99.90;;;;;;4972853;28;20057;-81
2022/12/18 10:56:26;;;;;;;18.67;9.27;;;-2.70;99.90;;;;;;4973802;28;20106;-81
2022/12/18 10:58:58;;;;;;;19.30;9.38;;;-2.70;99.90;;;;;;4971783;28;20133;-81
2022/12/18 11:01:23;;;;;;;15.45;7.88;;;-2.60;99.90;;;;;;4973633;28;20113;-81
2022/12/18 11:03:58;;;;;;;13.98;7.05;;;-2.60;99.90;;;;;;4972997;28;20046;-81
2022/12/18 11:06:25;;;;;;;12.77;7.15;;;-2.60;99.90;;;;;;4973845;28;20047;-81
2022/12/18 11:09:05;;;;;;;23.67;8.00;;;-2.50;99.90;;;;;;4973975;28;20051;-81
2022/12/18 11:11:32;;;;;;;17.10;8.25;;;-2.50;99.90;;;;;;4971638;28;20169;-81
2022/12/18 11:14:05;;;;;;;15.98;8.20;;;-2.50;99.90;;;;;;4973948;28;20039;-81
2022/12/18 11:16:36;;;;;;;15.23;8.00;;;-2.40;99.90;;;;;;4974598;28;20141;-81
2022/12/18 11:19:39;;;;;;;12.20;7.00;;;-2.40;99.90;;;;;;4975526;28;20068;-81
2022/12/18 11:22:21;;;;;;;9.40;5.30;;;-2.40;99.90;;;;;;4957596;28;20134;-81
2022/12/18 11:25:17;;;;;;;12.70;6.50;;;-2.30;99.90;;;;;;4976279;28;20051;-81
2022/12/18 11:27:49;;;;;;;10.82;6.18;;;-2.30;99.90;;;;;;4977481;28;20130;-82
2022/12/18 11:30:28;;;;;;;13.30;6.85;;;-2.30;99.90;;;;;;4983101;28;20047;-81
2022/12/18 11:32:53;;;;;;;14.10;6.95;;;-2.30;99.90;;;;;;4983528;28;20202;-80
2022/12/18 11:35:37;;;;;;;14.52;7.30;;;-2.20;99.90;;;;;;4976301;28;20087;-81
2022/12/18 11:38:12;;;;;;;12.63;5.97;;;-2.20;99.90;;;;;;4976107;28;20498;-81
2022/12/18 11:40:41;;;;;;;12.05;6.78;;;-2.10;99.90;;;;;;4985565;28;20051;-81
2022/12/18 11:43:19;;;;;;;11.82;6.13;;;-2.10;99.90;;;;;;4995272;28;20050;-81
2022/12/18 11:45:59;;;;;;;11.45;6.57;;;-2.10;99.90;;;;;;4991487;28;20509;-81
2022/12/18 11:48:33;;;;;;;10.50;4.93;;;-2.00;99.90;;;;;;4984643;28;20078;-81
2022/12/18 11:51:04;;;;;;;14.55;5.85;;;-2.00;99.90;;;;;;5001494;28;20482;-81
2022/12/18 11:53:30;;;;;;;10.75;5.65;;;-1.90;99.90;;;;;;5002996;28;20896;-82
2022/12/18 11:56:24;;;;;;;10.20;5.80;;;-1.90;99.90;;;;;;4975475;28;20046;-81
2022/12/18 11:59:32;;;;;;;11.77;5.85;;;-1.90;99.90;;;;;;4975757;28;20051;-82
2022/12/18 12:02:36;;;;;;;11.48;6.10;;;-1.90;99.90;;;;;;4956942;28;20047;-81
2022/12/18 12:05:18;;;;;;;10.88;5.97;;;-1.80;99.90;;;;;;4985685;28;20045;-80
2022/12/18 12:08:21;;;;;;;11.07;5.80;;;-1.80;99.90;;;;;;4993932;28;20046;-80
2022/12/18 12:10:59;;;;;;;11.85;5.35;;;-1.80;99.90;;;;;;4928429;28;20081;-81
2022/12/18 12:14:03;;;;;;;11.20;5.45;;;-1.70;99.90;;;;;;4990995;28;20031;-80
2022/12/18 12:16:32;;;;;;;9.25;5.35;;;-1.70;99.90;;;;;;4994048;28;20491;-81
2022/12/18 12:19:31;;;;;;;9.50;5.00;;;-1.70;99.90;;;;;;4985671;28;20038;-80
2022/12/18 12:22:26;;;;;;;9.55;5.22;;;-1.70;99.90;;;;;;4995457;28;20053;-80
2022/12/18 12:25:16;;;;;;;10.55;5.40;;;-1.60;99.90;;;;;;4978805;28;20050;-81
2022/12/18 12:27:53;;;;;;;12.38;5.45;;;-1.60;99.90;;;;;;4996319;28;20482;-81
2022/12/18 12:30:35;;;;;;;10.23;5.40;;;-1.60;99.90;;;;;;4985170;28;20388;-82
2022/12/18 12:33:06;;;;;;;8.90;5.40;;;-1.50;99.90;;;;;;4982716;28;20042;-82
2022/12/18 12:35:47;;;;;;;9.70;5.68;;;-1.60;99.90;;;;;;4993477;28;20042;-82
2022/12/18 12:38:17;;;;;;;11.88;5.30;;;-1.40;99.90;;;;;;4987927;28;20125;-82
2022/12/18 12:40:59;;;;;;;12.02;5.75;;;-1.50;99.90;;;;;;4978099;28;20081;-82
2022/12/18 12:43:30;;;;;;;12.57;6.55;;;-1.40;99.90;;;;;;4985641;28;20042;-82
2022/12/18 12:46:09;;;;;;;11.00;6.15;;;-1.40;99.90;;;;;;4981353;28;20051;-82
2022/12/18 12:48:49;;;;;;;10.23;5.70;;;-1.30;99.90;;;;;;4983864;28;20398;-84